Time;durP1;ratioP1;P1;durP2;ratioP2;P2;SDS_P1;SDS_P2;PMS_P1;PMS_P2;Temp;Humidity;BMP_temperature;BMP_pressure;BME280_temperature;BME280_humidity;BME280_pressure;Samples;Min_cycle;Max_cycle;Signal;HPM_P1;HPM_P2
2023/05/25 00:00:52;;;;;;;5.05;3.55;;;20.20;99.90;;;;;;5032213;28;20038;-52
2023/05/25 00:03:19;;;;;;;6.93;3.97;;;20.10;99.90;;;;;;5035112;28;20026;-53
2023/05/25 00:05:44;;;;;;;8.15;3.67;;;20.10;99.90;;;;;;5028002;28;20045;-52
2023/05/25 00:08:11;;;;;;;4.35;3.63;;;;;;;;;;5035001;28;20397;-52
2023/05/25 00:10:37;;;;;;;6.60;4.50;;;;;;;;;;5017095;28;20132;-51
2023/05/25 00:13:03;;;;;;;8.35;4.20;;;;;;;;;;5035261;28;20029;-51
2023/05/25 00:15:29;;;;;;;5.13;3.75;;;;;;;;;;5033486;28;20045;-51
2023/05/25 00:17:55;;;;;;;5.07;4.03;;;;;;;;;;5031897;28;20045;-51
2023/05/25 00:20:21;;;;;;;5.32;3.92;;;;;;;;;;5032562;28;20104;-51
2023/05/25 00:22:47;;;;;;;8.60;3.88;;;;;;;;;;5034761;28;20025;-52
2023/05/25 00:25:13;;;;;;;5.78;3.80;;;;;;;;;;5035109;28;20036;-52
2023/05/25 00:27:39;;;;;;;4.97;4.00;;;;;;;;;;5016695;28;20117;-51
2023/05/25 00:30:06;;;;;;;8.13;3.97;;;19.80;99.90;;;;;;5032179;28;20396;-51
2023/05/25 00:32:32;;;;;;;5.45;4.25;;;19.60;99.90;;;;;;5034517;28;20036;-51
2023/05/25 00:34:57;;;;;;;7.28;3.55;;;19.70;99.90;;;;;;5015367;28;20034;-51
2023/05/25 00:37:23;;;;;;;5.78;3.88;;;19.70;99.90;;;;;;5034779;28;20037;-51
2023/05/25 00:39:49;;;;;;;6.85;3.95;;;19.70;99.90;;;;;;5034792;28;20366;-51
2023/05/25 00:42:15;;;;;;;6.25;4.40;;;19.60;99.90;;;;;;5034445;28;20087;-51
2023/05/25 00:44:41;;;;;;;10.10;4.28;;;19.60;99.90;;;;;;5032077;28;20095;-51
2023/05/25 00:47:07;;;;;;;7.28;3.80;;;19.60;99.90;;;;;;5033714;28;20099;-51
2023/05/25 00:49:36;;;;;;;7.18;4.00;;;19.70;99.90;;;;;;5032315;28;20038;-53
2023/05/25 00:52:02;;;;;;;5.78;3.60;;;19.70;99.90;;;;;;4999103;28;20029;-52
2023/05/25 00:54:28;;;;;;;5.90;3.83;;;19.70;99.90;;;;;;5034644;28;20076;-51
2023/05/25 00:57:03;;;;;;;5.88;4.35;;;19.60;99.90;;;;;;5034505;28;20045;-51
2023/05/25 00:59:40;;;;;;;6.80;3.88;;;19.60;99.90;;;;;;5034125;28;20064;-51
2023/05/25 01:02:09;;;;;;;5.43;3.63;;;19.50;99.90;;;;;;5032362;28;20546;-52
2023/05/25 01:04:39;;;;;;;6.18;4.18;;;19.40;99.90;;;;;;5033489;28;20026;-51
2023/05/25 01:07:09;;;;;;;5.82;4.03;;;19.40;99.90;;;;;;5031955;28;20121;-51
2023/05/25 01:09:38;;;;;;;6.30;3.70;;;19.50;99.90;;;;;;5032949;28;20034;-52
2023/05/25 01:12:05;;;;;;;10.13;4.32;;;;;;;;;;5033761;28;20056;-52
2023/05/25 01:14:31;;;;;;;6.10;4.13;;;;;;;;;;5033706;28;20519;-51
2023/05/25 01:16:57;;;;;;;5.57;3.88;;;;;;;;;;5033552;28;20048;-51
2023/05/25 01:19:24;;;;;;;5.18;3.80;;;;;;;;;;5034146;28;20064;-51
2023/05/25 01:22:09;;;;;;;7.28;4.75;;;;;;;;;;5031241;28;20099;-51
2023/05/25 01:24:35;;;;;;;6.95;4.30;;;;;;;;;;5032953;28;20041;-54
2023/05/25 01:27:05;;;;;;;6.22;3.78;;;;;;;;;;5033798;28;20053;-53
2023/05/25 01:29:33;;;;;;;5.95;4.05;;;;;;;;;;4998487;28;20069;-52
2023/05/25 01:32:00;;;;;;;5.57;4.07;;;;;;;;;;5033249;28;20393;-52
2023/05/25 01:34:26;;;;;;;5.88;4.35;;;;;;;;;;5033084;28;20529;-53
2023/05/25 01:36:52;;;;;;;5.25;4.03;;;;;;;;;;5033745;28;20080;-51
2023/05/25 01:39:21;;;;;;;6.60;4.80;;;19.10;99.90;;;;;;5030788;28;20045;-51
2023/05/25 01:41:46;;;;;;;6.22;4.40;;;19.00;99.90;;;;;;5033212;28;20393;-54
2023/05/25 01:44:12;;;;;;;7.22;4.20;;;18.90;99.90;;;;;;5033142;28;20087;-53
2023/05/25 01:46:39;;;;;;;6.95;5.13;;;18.90;99.90;;;;;;5032587;28;20071;-53
2023/05/25 01:49:08;;;;;;;6.03;4.00;;;18.80;99.90;;;;;;5033308;28;20024;-52
2023/05/25 01:51:46;;;;;;;5.50;3.95;;;18.80;99.90;;;;;;5033545;28;20120;-52
2023/05/25 01:54:18;;;;;;;6.10;3.97;;;18.70;99.90;;;;;;5032962;28;20053;-51
2023/05/25 01:56:45;;;;;;;;;;;18.60;99.90;;;;;;5019954;28;20065;-50
2023/05/25 01:59:13;;;;;;;5.75;4.03;;;18.70;99.90;;;;;;5032085;28;19905;-52
2023/05/25 02:01:41;;;;;;;5.20;3.80;;;18.70;99.90;;;;;;4966833;28;20078;-51
2023/05/25 02:04:08;;;;;;;5.63;4.18;;;18.70;99.90;;;;;;5031394;28;20448;-51
2023/05/25 02:06:37;;;;;;;8.00;4.47;;;18.70;99.90;;;;;;5032945;28;20025;-51
2023/05/25 02:09:03;;;;;;;6.60;4.10;;;18.70;99.90;;;;;;5015249;28;20045;-51
2023/05/25 02:11:29;;;;;;;7.00;4.30;;;18.60;99.90;;;;;;4946747;28;20032;-51
2023/05/25 02:13:55;;;;;;;10.02;4.70;;;18.60;99.90;;;;;;4912868;29;20032;-51
2023/05/25 02:16:21;;;;;;;5.55;4.22;;;18.50;99.90;;;;;;4914569;29;20051;-51
2023/05/25 02:18:46;;;;;;;6.47;4.40;;;18.50;99.90;;;;;;4883125;29;20040;-52
2023/05/25 02:21:12;;;;;;;5.50;3.88;;;18.50;99.90;;;;;;4883645;29;20417;-52
2023/05/25 02:23:38;;;;;;;6.35;4.57;;;18.50;99.90;;;;;;4898252;29;20047;-51
2023/05/25 02:26:04;;;;;;;5.55;3.75;;;18.40;99.90;;;;;;4882949;29;20040;-51
2023/05/25 02:28:30;;;;;;;6.38;3.63;;;18.40;99.90;;;;;;4914990;29;20147;-51
2023/05/25 02:30:55;;;;;;;7.22;3.90;;;18.30;99.90;;;;;;4914497;29;20480;-51
2023/05/25 02:33:21;;;;;;;7.40;4.07;;;18.20;99.90;;;;;;4914108;29;20040;-51
2023/05/25 02:35:48;;;;;;;7.07;4.03;;;18.20;99.90;;;;;;4914186;29;20048;-52
2023/05/25 02:38:14;;;;;;;10.27;3.50;;;18.10;99.90;;;;;;4914353;29;20072;-51
2023/05/25 02:40:39;;;;;;;5.40;3.80;;;18.10;99.90;;;;;;4866942;29;20043;-51
2023/05/25 02:43:05;;;;;;;5.85;3.90;;;18.10;99.90;;;;;;4900181;29;20077;-52
2023/05/25 02:45:31;;;;;;;4.57;3.35;;;18.00;99.90;;;;;;4968622;28;20504;-52
2023/05/25 02:47:56;;;;;;;4.38;2.85;;;18.00;99.90;;;;;;5012139;28;20561;-52
2023/05/25 02:50:22;;;;;;;3.97;2.95;;;18.10;99.90;;;;;;5032112;28;20033;-51
2023/05/25 02:52:48;;;;;;;4.93;3.28;;;17.90;99.90;;;;;;5031284;28;20067;-51
2023/05/25 02:55:14;;;;;;;4.38;3.25;;;18.00;99.90;;;;;;5031897;28;20033;-51
2023/05/25 02:57:40;;;;;;;5.60;3.60;;;17.80;99.90;;;;;;5013663;28;20049;-51
2023/05/25 03:00:06;;;;;;;5.68;3.65;;;17.80;99.90;;;;;;4981468;28;20030;-51
2023/05/25 03:02:32;;;;;;;5.93;3.22;;;17.70;99.90;;;;;;5031939;28;20394;-51
2023/05/25 03:04:59;;;;;;;5.50;3.13;;;17.80;99.90;;;;;;5032061;28;20037;-51
2023/05/25 03:07:25;;;;;;;7.05;3.42;;;17.80;99.90;;;;;;5032681;28;20486;-51
2023/05/25 03:09:51;;;;;;;6.55;3.78;;;17.60;99.90;;;;;;5031604;28;20038;-51
2023/05/25 03:12:17;;;;;;;5.22;3.45;;;17.70;99.90;;;;;;5031843;28;20363;-52
2023/05/25 03:14:43;;;;;;;4.90;3.22;;;17.80;99.90;;;;;;5031974;28;20041;-52
2023/05/25 03:17:09;;;;;;;5.15;3.75;;;17.80;99.90;;;;;;5032208;28;20083;-51
2023/05/25 03:19:35;;;;;;;8.73;3.55;;;17.70;99.90;;;;;;5012931;28;20041;-52
2023/05/25 03:22:03;;;;;;;6.25;3.70;;;17.60;99.90;;;;;;5031570;28;20488;-51
2023/05/25 03:24:29;;;;;;;5.53;3.30;;;17.60;99.90;;;;;;5030465;28;20030;-51
2023/05/25 03:26:55;;;;;;;5.18;3.38;;;17.60;99.90;;;;;;5013907;28;20492;-51
2023/05/25 03:29:20;;;;;;;4.32;3.15;;;17.70;99.90;;;;;;5031430;28;20033;-51
2023/05/25 03:31:46;;;;;;;5.25;3.45;;;17.80;99.90;;;;;;5029415;28;20029;-50
2023/05/25 03:34:12;;;;;;;7.88;4.00;;;17.80;99.90;;;;;;5029406;28;20578;-51
2023/05/25 03:36:38;;;;;;;5.45;3.30;;;17.70;99.90;;;;;;4996425;28;20077;-51
2023/05/25 03:39:04;;;;;;;7.95;4.05;;;17.70;99.90;;;;;;4990427;28;20042;-51
2023/05/25 03:41:30;;;;;;;5.28;3.30;;;17.70;99.90;;;;;;4989257;28;20482;-51
2023/05/25 03:43:56;;;;;;;4.60;3.45;;;17.80;99.90;;;;;;4990049;28;20046;-51
2023/05/25 03:46:21;;;;;;;5.22;3.60;;;17.70;99.90;;;;;;4989834;28;20039;-52
2023/05/25 03:48:47;;;;;;;5.18;3.22;;;17.80;99.90;;;;;;4990222;28;20078;-51
2023/05/25 03:51:13;;;;;;;4.28;3.10;;;17.80;99.90;;;;;;4990013;28;20026;-51
2023/05/25 03:53:38;;;;;;;4.97;2.92;;;17.80;99.90;;;;;;4989381;28;20093;-52
2023/05/25 03:56:05;;;;;;;7.47;3.20;;;17.90;99.90;;;;;;4956794;28;20058;-52
2023/05/25 03:58:30;;;;;;;5.82;3.28;;;17.70;99.90;;;;;;4972882;28;20050;-51
2023/05/25 04:00:57;;;;;;;4.95;3.20;;;17.80;99.90;;;;;;4988894;28;20077;-52
2023/05/25 04:03:22;;;;;;;4.88;3.10;;;17.80;99.90;;;;;;4989550;28;20038;-52
2023/05/25 04:05:48;;;;;;;6.75;4.25;;;17.70;99.90;;;;;;4989563;28;20078;-53
2023/05/25 04:08:16;;;;;;;4.72;3.20;;;;;;;;;;4990036;28;20454;-52
2023/05/25 04:10:44;;;;;;;4.30;2.83;;;17.70;99.90;;;;;;5021771;28;20048;-52
2023/05/25 04:13:09;;;;;;;8.80;3.58;;;17.80;99.90;;;;;;5031177;28;20029;-52
2023/05/25 04:15:35;;;;;;;3.80;2.75;;;17.90;99.90;;;;;;5031140;28;20056;-53
2023/05/25 04:18:01;;;;;;;4.82;3.15;;;17.90;99.90;;;;;;5031936;28;20037;-50
2023/05/25 04:20:28;;;;;;;5.00;3.17;;;18.00;99.90;;;;;;5030688;28;20017;-51
2023/05/25 04:22:54;;;;;;;4.65;3.05;;;18.10;99.90;;;;;;5034228;28;20026;-51
2023/05/25 04:25:20;;;;;;;5.07;3.33;;;18.20;99.90;;;;;;5034581;28;20112;-51
2023/05/25 04:27:46;;;;;;;5.95;3.00;;;18.20;99.90;;;;;;5034858;28;20421;-51
2023/05/25 04:30:12;;;;;;;7.75;3.15;;;18.30;99.90;;;;;;5034708;28;20453;-51
2023/05/25 04:32:39;;;;;;;4.15;2.78;;;18.30;99.90;;;;;;5032810;28;20037;-51
2023/05/25 04:35:05;;;;;;;3.65;2.42;;;18.20;99.90;;;;;;5034422;28;20037;-52
2023/05/25 04:37:32;;;;;;;5.40;3.50;;;18.00;99.90;;;;;;5035150;28;20033;-51
2023/05/25 04:39:58;;;;;;;6.45;3.45;;;18.00;99.90;;;;;;5034390;28;20036;-51
2023/05/25 04:42:25;;;;;;;5.43;3.63;;;18.10;99.90;;;;;;5030737;28;20033;-52
2023/05/25 04:44:54;;;;;;;4.20;3.10;;;18.30;99.90;;;;;;5016448;28;20047;-51
2023/05/25 04:47:20;;;;;;;3.97;2.50;;;18.20;99.90;;;;;;5034392;28;20037;-51
2023/05/25 04:49:46;;;;;;;5.30;3.38;;;18.10;99.90;;;;;;5015883;28;20045;-56
2023/05/25 04:52:12;;;;;;;5.05;3.38;;;18.10;99.90;;;;;;5032744;28;20033;-51
2023/05/25 04:54:38;;;;;;;5.70;3.28;;;18.10;99.90;;;;;;5012177;28;20123;-53
2023/05/25 04:57:04;;;;;;;4.75;3.28;;;18.10;99.90;;;;;;5029354;28;20041;-53
2023/05/25 04:59:29;;;;;;;4.85;3.25;;;18.10;99.90;;;;;;5033512;28;20400;-52
2023/05/25 05:01:55;;;;;;;8.35;3.85;;;18.30;99.90;;;;;;5034591;28;20443;-51
2023/05/25 05:04:21;;;;;;;6.13;3.38;;;18.40;99.90;;;;;;5033983;28;20052;-51
2023/05/25 05:06:47;;;;;;;5.22;3.38;;;18.50;99.90;;;;;;5029494;28;20030;-53
2023/05/25 05:09:13;;;;;;;5.95;3.03;;;18.60;99.90;;;;;;5031001;28;20117;-54
2023/05/25 05:11:38;;;;;;;5.03;3.47;;;18.60;99.90;;;;;;5033411;28;20374;-53
2023/05/25 05:14:04;;;;;;;5.35;3.45;;;18.70;99.90;;;;;;5031374;28;20488;-54
2023/05/25 05:16:33;;;;;;;4.55;3.20;;;18.90;99.90;;;;;;5033804;28;20056;-53
2023/05/25 05:19:00;;;;;;;5.57;3.40;;;18.90;99.90;;;;;;5033679;28;20041;-51
2023/05/25 05:21:26;;;;;;;5.40;3.50;;;18.60;99.90;;;;;;5033241;28;20026;-51
2023/05/25 05:23:52;;;;;;;4.93;3.58;;;18.80;99.90;;;;;;5033881;28;20034;-52
2023/05/25 05:26:18;;;;;;;8.02;2.85;;;18.90;99.90;;;;;;5033439;28;20551;-52
2023/05/25 05:28:43;;;;;;;5.25;3.58;;;18.80;99.90;;;;;;5033720;28;20116;-52
2023/05/25 05:31:10;;;;;;;5.25;3.83;;;18.90;99.90;;;;;;5033068;28;20033;-52
2023/05/25 05:33:36;;;;;;;5.57;3.25;;;19.10;99.90;;;;;;5033116;28;20033;-52
2023/05/25 05:36:03;;;;;;;4.05;3.25;;;19.10;99.90;;;;;;5033669;28;20481;-52
2023/05/25 05:38:29;;;;;;;4.55;2.70;;;19.30;99.90;;;;;;5014506;28;20055;-51
2023/05/25 05:40:55;;;;;;;4.53;2.90;;;19.40;99.90;;;;;;5013842;28;20038;-51
2023/05/25 05:43:20;;;;;;;5.90;3.38;;;19.40;99.90;;;;;;5033363;28;20025;-51
2023/05/25 05:45:46;;;;;;;6.28;3.00;;;19.30;99.90;;;;;;5032730;28;20377;-51
2023/05/25 05:48:12;;;;;;;4.43;2.83;;;19.40;99.90;;;;;;5033195;28;20025;-51
2023/05/25 05:50:38;;;;;;;5.68;2.88;;;19.20;99.90;;;;;;5032324;28;20030;-51
2023/05/25 05:53:05;;;;;;;3.55;2.78;;;19.40;99.90;;;;;;5033502;28;20044;-51
2023/05/25 05:55:33;;;;;;;4.70;3.08;;;19.50;99.90;;;;;;5033177;28;20079;-51
2023/05/25 05:57:59;;;;;;;3.83;2.88;;;19.60;99.90;;;;;;5014881;28;20033;-50
2023/05/25 06:00:25;;;;;;;3.13;1.90;;;19.60;99.90;;;;;;5033098;28;20083;-51
2023/05/25 06:02:50;;;;;;;3.90;2.97;;;19.60;99.90;;;;;;4997872;28;20045;-51
2023/05/25 06:05:16;;;;;;;4.55;3.10;;;19.70;99.90;;;;;;5032646;28;20036;-51
2023/05/25 06:07:42;;;;;;;5.43;3.40;;;19.80;99.90;;;;;;5032947;28;20447;-50
2023/05/25 06:10:08;;;;;;;4.45;3.15;;;19.90;99.90;;;;;;5030695;28;20117;-51
2023/05/25 06:12:34;;;;;;;4.80;2.75;;;19.90;99.90;;;;;;5014216;28;20128;-53
2023/05/25 06:15:00;;;;;;;5.55;3.58;;;19.90;99.90;;;;;;5029535;28;20030;-50
2023/05/25 06:17:28;;;;;;;4.28;3.35;;;20.00;99.90;;;;;;5026901;28;20079;-50
2023/05/25 06:19:54;;;;;;;4.78;3.15;;;20.20;99.90;;;;;;5032521;28;20033;-50
2023/05/25 06:22:20;;;;;;;4.88;3.30;;;20.00;99.90;;;;;;4997228;28;20044;-50
2023/05/25 06:24:46;;;;;;;5.55;3.25;;;20.20;99.90;;;;;;5033208;28;20443;-51
2023/05/25 06:27:12;;;;;;;5.38;4.10;;;20.00;99.90;;;;;;5032709;28;20029;-50
2023/05/25 06:29:38;;;;;;;4.65;3.45;;;20.10;99.90;;;;;;5027938;28;20440;-50
2023/05/25 06:32:04;;;;;;;3.55;2.33;;;20.20;99.90;;;;;;5032963;28;20095;-50
2023/05/25 06:34:29;;;;;;;7.68;3.88;;;20.10;99.90;;;;;;5010223;28;20041;-50
2023/05/25 06:36:55;;;;;;;3.72;2.50;;;20.10;99.90;;;;;;5028008;28;20191;-53
2023/05/25 06:39:21;;;;;;;2.47;2.03;;;20.00;99.90;;;;;;5030987;28;20069;-50
2023/05/25 06:41:47;;;;;;;5.32;3.78;;;20.20;99.90;;;;;;5032586;28;20045;-52
2023/05/25 06:44:13;;;;;;;4.55;3.45;;;20.10;99.90;;;;;;5029244;28;20033;-50
2023/05/25 06:46:38;;;;;;;6.22;3.08;;;20.40;99.90;;;;;;5030169;28;20172;-55
2023/05/25 06:49:04;;;;;;;2.67;1.80;;;20.20;99.90;;;;;;5028541;28;20033;-55
2023/05/25 06:51:31;;;;;;;5.00;3.80;;;20.40;99.90;;;;;;5027033;28;20151;-52
2023/05/25 06:53:57;;;;;;;5.28;3.00;;;20.60;99.90;;;;;;5026905;28;20053;-53
2023/05/25 06:56:23;;;;;;;4.53;3.50;;;20.70;99.90;;;;;;5012827;28;20154;-55
2023/05/25 06:58:49;;;;;;;5.15;3.40;;;20.90;99.90;;;;;;5032741;28;20029;-52
2023/05/25 07:01:15;;;;;;;2.13;1.25;;;21.00;99.90;;;;;;5031800;28;20033;-52
2023/05/25 07:03:42;;;;;;;3.85;3.08;;;20.80;99.90;;;;;;5030004;28;20025;-51
2023/05/25 07:06:10;;;;;;;5.07;3.92;;;21.10;99.90;;;;;;5032274;28;20389;-54
2023/05/25 07:08:36;;;;;;;6.75;3.72;;;20.90;99.90;;;;;;5031338;28;20073;-66
2023/05/25 07:11:01;;;;;;;6.57;4.32;;;20.90;99.90;;;;;;5028712;28;20033;-58
2023/05/25 07:13:27;;;;;;;5.07;3.47;;;21.20;99.90;;;;;;5030884;28;20025;-63
2023/05/25 07:15:53;;;;;;;5.05;3.53;;;21.20;99.90;;;;;;5029574;28;20037;-53
2023/05/25 07:18:18;;;;;;;6.43;3.83;;;21.10;99.90;;;;;;5023496;28;20034;-56
2023/05/25 07:20:45;;;;;;;5.05;3.40;;;21.30;99.90;;;;;;5026824;28;20068;-52
2023/05/25 07:23:11;;;;;;;4.88;3.20;;;21.40;99.90;;;;;;5031673;28;20030;-53
2023/05/25 07:25:38;;;;;;;6.80;4.07;;;21.60;99.90;;;;;;5031409;28;20029;-52
2023/05/25 07:28:04;;;;;;;5.72;3.63;;;21.80;99.90;;;;;;5029841;28;20044;-51
2023/05/25 07:30:30;;;;;;;4.05;2.63;;;21.70;99.90;;;;;;5029514;28;20097;-53
2023/05/25 07:32:57;;;;;;;4.90;3.58;;;21.70;99.90;;;;;;5028438;28;20038;-59
2023/05/25 07:35:23;;;;;;;7.55;3.95;;;21.90;99.90;;;;;;5031136;28;20052;-56
2023/05/25 07:38:00;;;;;;;6.38;4.07;;;22.00;99.90;;;;;;5029294;28;20072;-56
2023/05/25 07:40:26;;;;;;;5.93;3.65;;;22.20;99.90;;;;;;5024497;28;20034;-56
2023/05/25 07:42:52;;;;;;;5.35;4.10;;;22.30;99.90;;;;;;5031600;28;20033;-57
2023/05/25 07:45:18;;;;;;;5.20;3.40;;;22.10;99.90;;;;;;5012148;28;20139;-54
2023/05/25 07:47:44;;;;;;;7.63;4.25;;;22.00;99.90;;;;;;5031105;28;20084;-54
2023/05/25 07:50:10;;;;;;;5.95;3.30;;;22.20;99.90;;;;;;5031847;28;20076;-56
2023/05/25 07:52:37;;;;;;;4.60;3.63;;;22.30;99.90;;;;;;5030259;28;20036;-56
2023/05/25 07:55:05;;;;;;;5.57;3.65;;;22.60;99.90;;;;;;5031535;28;20029;-52
2023/05/25 07:57:31;;;;;;;5.97;3.92;;;22.70;99.90;;;;;;5035267;28;20051;-53
2023/05/25 07:59:57;;;;;;;6.72;3.70;;;;;;;;;;5035964;28;20029;-57
2023/05/25 08:02:22;;;;;;;5.35;3.80;;;22.80;99.90;;;;;;5035088;28;20037;-54
2023/05/25 08:04:48;;;;;;;4.90;3.78;;;22.90;99.90;;;;;;5034372;28;20099;-52
2023/05/25 08:07:14;;;;;;;6.15;3.72;;;;;;;;;;5035143;28;20033;-55
2023/05/25 08:09:40;;;;;;;6.72;3.58;;;22.90;99.90;;;;;;5034035;28;20084;-53
2023/05/25 08:12:06;;;;;;;5.55;3.67;;;22.70;99.90;;;;;;5035145;28;20021;-53
2023/05/25 08:14:31;;;;;;;4.53;2.85;;;23.00;99.90;;;;;;5016526;28;20069;-53
2023/05/25 08:16:57;;;;;;;7.38;3.83;;;23.00;99.90;;;;;;5034846;28;20038;-53
2023/05/25 08:19:23;;;;;;;4.70;3.58;;;23.50;99.90;;;;;;5032552;28;20032;-53
2023/05/25 08:21:48;;;;;;;5.28;3.97;;;23.50;99.90;;;;;;5033203;28;20029;-54
2023/05/25 08:24:14;;;;;;;5.15;3.97;;;23.50;99.90;;;;;;5029763;28;20058;-51
2023/05/25 08:26:42;;;;;;;4.82;3.28;;;;;;;;;;5030012;28;20128;-51
2023/05/25 08:29:07;;;;;;;5.85;4.03;;;23.80;99.90;;;;;;5033371;28;20072;-50
2023/05/25 08:31:34;;;;;;;6.40;4.10;;;;;;;;;;5034236;28;20061;-51
2023/05/25 08:34:00;;;;;;;6.28;3.97;;;;;;;;;;5034937;28;20064;-50
2023/05/25 08:36:27;;;;;;;7.55;4.10;;;;;;;;;;5031497;28;20096;-51
2023/05/25 08:38:53;;;;;;;6.82;4.30;;;24.10;99.90;;;;;;5034829;28;20042;-51
2023/05/25 08:41:20;;;;;;;4.63;3.80;;;;;;;;;;5034420;28;20025;-52
2023/05/25 08:43:46;;;;;;;6.40;4.32;;;24.50;99.90;;;;;;5034865;28;20108;-52
2023/05/25 08:46:12;;;;;;;7.18;4.53;;;;;;;;;;5034942;28;20117;-51
2023/05/25 08:48:38;;;;;;;4.85;3.47;;;;;;;;;;5032242;28;20038;-52
2023/05/25 08:51:07;;;;;;;6.22;3.33;;;24.40;99.90;;;;;;5015371;28;20037;-51
2023/05/25 08:53:38;;;;;;;6.13;3.95;;;;;;;;;;5034390;28;20033;-51
2023/05/25 08:56:10;;;;;;;6.43;3.90;;;;;;;;;;5033366;28;20095;-50
2023/05/25 08:58:40;;;;;;;4.05;3.28;;;;;;;;;;5033632;28;20547;-51
2023/05/25 09:01:08;;;;;;;4.53;3.65;;;;;;;;;;5032800;28;20627;-51
2023/05/25 09:03:35;;;;;;;4.75;3.30;;;;;;;;;;5034081;28;20117;-50
2023/05/25 09:06:01;;;;;;;4.30;3.40;;;;;;;;;;5034655;28;20105;-52
2023/05/25 09:08:27;;;;;;;4.18;2.72;;;;;;;;;;5033115;28;20388;-50
2023/05/25 09:10:55;;;;;;;3.92;3.22;;;;;;;;;;5033276;28;20032;-51
2023/05/25 09:13:21;;;;;;;5.22;3.60;;;;;;;;;;5032840;28;20029;-51
2023/05/25 09:15:47;;;;;;;3.97;3.33;;;;;;;;;;5033176;28;20104;-52
2023/05/25 09:18:13;;;;;;;5.15;3.03;;;;;;;;;;5034384;28;20110;-52
2023/05/25 09:20:40;;;;;;;4.45;3.08;;;24.60;99.90;;;;;;5033786;28;20492;-54
2023/05/25 09:23:07;;;;;;;4.05;3.33;;;24.60;99.90;;;;;;5033795;28;20036;-56
2023/05/25 09:25:33;;;;;;;4.13;3.33;;;;;;;;;;5032103;28;20021;-54
2023/05/25 09:28:00;;;;;;;3.60;2.85;;;;;;;;;;5015138;28;20038;-58
2023/05/25 09:30:31;;;;;;;2.95;2.60;;;;;;;;;;5033031;28;20446;-53
2023/05/25 09:33:17;;;;;;;3.75;2.78;;;;;;;;;;5015129;28;20215;-55
2023/05/25 09:35:44;;;;;;;4.10;2.58;;;;;;;;;;5028946;28;20041;-54
2023/05/25 09:38:13;;;;;;;3.72;2.65;;;;;;;;;;5031155;28;20053;-56
2023/05/25 09:40:39;;;;;;;2.95;2.65;;;;;;;;;;5033325;28;20108;-53
2023/05/25 09:43:05;;;;;;;4.35;3.30;;;;;;;;;;5015380;28;20049;-52
2023/05/25 09:45:31;;;;;;;3.05;2.63;;;;;;;;;;5032846;28;20477;-56
2023/05/25 09:47:58;;;;;;;6.65;2.72;;;;;;;;;;5033519;28;20100;-52
2023/05/25 09:50:26;;;;;;;3.38;2.92;;;;;;;;;;5029219;28;20038;-53
2023/05/25 09:52:56;;;;;;;3.70;3.20;;;;;;;;;;5033376;28;20029;-52
2023/05/25 09:55:22;;;;;;;2.63;2.25;;;;;;;;;;5032738;28;20026;-53
2023/05/25 09:57:52;;;;;;;2.95;2.30;;;;;;;;;;5032772;28;20038;-52
2023/05/25 10:00:18;;;;;;;2.97;2.65;;;;;;;;;;5031561;28;20050;-58
2023/05/25 10:02:44;;;;;;;5.13;2.90;;;;;;;;;;5014412;28;20040;-50
2023/05/25 10:05:10;;;;;;;3.38;2.30;;;;;;;;;;5033199;28;20025;-49
2023/05/25 10:07:39;;;;;;;3.25;2.55;;;;;;;;;;5034069;28;20095;-51
2023/05/25 10:10:09;;;;;;;3.75;2.65;;;;;;;;;;5031950;28;20060;-50
2023/05/25 10:12:37;;;;;;;3.38;2.88;;;26.10;99.90;;;;;;5032274;28;20397;-50
2023/05/25 10:15:03;;;;;;;3.03;2.22;;;26.40;99.90;;;;;;5033003;28;20034;-50
2023/05/25 10:17:34;;;;;;;4.07;2.28;;;26.30;99.90;;;;;;5032532;28;20079;-50
2023/05/25 10:20:00;;;;;;;3.03;2.25;;;26.60;99.90;;;;;;5012728;28;20127;-50
2023/05/25 10:22:50;;;;;;;2.95;2.63;;;26.70;99.90;;;;;;5015058;28;20542;-50
2023/05/25 10:25:24;;;;;;;2.53;1.88;;;26.50;99.90;;;;;;5031125;28;20033;-51
2023/05/25 10:28:03;;;;;;;3.03;2.63;;;26.10;99.90;;;;;;5032414;28;20041;-50
2023/05/25 10:30:30;;;;;;;2.50;2.10;;;26.50;99.90;;;;;;5031502;28;20038;-49
2023/05/25 10:32:56;;;;;;;3.75;2.80;;;26.70;99.90;;;;;;5028105;28;20108;-50
2023/05/25 10:35:23;;;;;;;2.90;2.28;;;27.00;99.90;;;;;;5015521;28;20124;-50
2023/05/25 10:37:53;;;;;;;2.28;2.08;;;27.40;99.90;;;;;;4997514;28;20045;-50
2023/05/25 10:40:21;;;;;;;3.22;2.47;;;27.10;99.90;;;;;;5032405;28;20087;-51
2023/05/25 10:42:50;;;;;;;3.75;2.33;;;26.90;99.90;;;;;;4990941;28;20121;-50
2023/05/25 10:45:16;;;;;;;2.97;1.95;;;26.50;99.90;;;;;;4990592;28;20046;-51
2023/05/25 10:47:42;;;;;;;3.40;2.38;;;26.50;99.90;;;;;;4990745;28;20038;-50
2023/05/25 10:50:27;;;;;;;2.60;2.22;;;26.40;99.90;;;;;;4991523;28;20030;-50
2023/05/25 10:53:00;;;;;;;3.10;2.53;;;;;;;;;;4972723;28;20096;-50
2023/05/25 10:55:30;;;;;;;3.03;2.55;;;;;;;;;;4990685;28;20035;-50
2023/05/25 10:58:10;;;;;;;4.10;2.70;;;26.80;99.90;;;;;;4991059;28;20054;-49
2023/05/25 11:00:37;;;;;;;2.75;2.22;;;26.90;99.90;;;;;;4990602;28;20121;-50
2023/05/25 11:03:03;;;;;;;4.03;2.90;;;26.90;99.90;;;;;;4990063;28;20084;-50
2023/05/25 11:05:33;;;;;;;3.17;2.85;;;27.10;99.90;;;;;;4983314;28;20037;-50
2023/05/25 11:08:00;;;;;;;3.08;2.38;;;27.10;99.90;;;;;;4990737;28;20084;-50
2023/05/25 11:10:47;;;;;;;3.33;2.47;;;27.20;99.90;;;;;;4990471;28;20095;-50
2023/05/25 11:13:38;;;;;;;2.22;1.65;;;27.30;99.90;;;;;;4999718;28;20084;-51
2023/05/25 11:16:16;;;;;;;2.67;1.83;;;27.20;99.90;;;;;;5031102;28;20116;-50
2023/05/25 11:18:44;;;;;;;3.78;2.33;;;27.80;99.90;;;;;;5027844;28;20088;-49
2023/05/25 11:21:17;;;;;;;1.85;1.55;;;28.20;99.90;;;;;;5032014;28;20033;-50
2023/05/25 11:23:56;;;;;;;2.42;1.90;;;27.60;99.90;;;;;;5010554;28;20033;-50
2023/05/25 11:26:24;;;;;;;2.67;2.33;;;27.70;99.90;;;;;;5004783;28;20089;-50
2023/05/25 11:28:51;;;;;;;2.50;1.85;;;27.70;99.90;;;;;;5007462;28;20572;-51
2023/05/25 11:31:25;;;;;;;2.50;2.15;;;27.80;99.90;;;;;;5012459;28;20022;-50
2023/05/25 11:33:56;;;;;;;1.67;1.58;;;28.20;99.90;;;;;;5009268;28;20042;-50
2023/05/25 11:36:23;;;;;;;3.65;2.25;;;28.30;99.90;;;;;;5008990;28;20076;-50
2023/05/25 11:38:50;;;;;;;3.13;1.73;;;28.10;99.90;;;;;;5002705;28;20050;-50
2023/05/25 11:41:17;;;;;;;2.45;1.58;;;27.50;99.90;;;;;;5011297;28;20049;-50
2023/05/25 11:43:49;;;;;;;2.40;2.10;;;27.70;99.90;;;;;;4998745;28;20041;-50
2023/05/25 11:46:18;;;;;;;3.33;2.60;;;27.90;99.90;;;;;;5008031;28;20481;-50
2023/05/25 11:48:53;;;;;;;2.33;2.10;;;28.10;99.90;;;;;;4976907;28;20125;-49
2023/05/25 11:51:23;;;;;;;2.53;2.20;;;28.20;99.90;;;;;;5010547;28;20045;-48
2023/05/25 11:53:50;;;;;;;3.33;2.17;;;28.30;99.90;;;;;;5009048;28;20033;-48
2023/05/25 11:56:18;;;;;;;5.00;2.45;;;28.50;99.90;;;;;;5028738;28;20077;-50
2023/05/25 11:58:46;;;;;;;2.15;1.95;;;28.50;99.90;;;;;;5032793;28;20034;-50
2023/05/25 12:01:22;;;;;;;5.13;1.98;;;28.70;99.90;;;;;;5030692;28;20063;-51
2023/05/25 12:03:52;;;;;;;3.38;2.08;;;28.60;99.90;;;;;;5034210;28;20491;-50
2023/05/25 12:06:27;;;;;;;3.10;2.25;;;;;;;;;;5028442;28;20030;-53
2023/05/25 12:08:54;;;;;;;2.78;2.28;;;29.00;99.90;;;;;;5027143;28;20033;-51
2023/05/25 12:11:34;;;;;;;2.70;2.50;;;28.80;99.90;;;;;;4986048;28;20117;-50
2023/05/25 12:14:02;;;;;;;3.40;2.47;;;28.60;99.90;;;;;;4987378;28;20525;-51
2023/05/25 12:16:29;;;;;;;3.78;2.42;;;28.30;99.90;;;;;;4991642;28;20376;-50
2023/05/25 12:18:56;;;;;;;3.47;2.00;;;27.80;99.90;;;;;;4994107;28;20034;-50
2023/05/25 12:21:22;;;;;;;3.95;2.10;;;28.20;99.90;;;;;;4993450;28;20066;-50
2023/05/25 12:23:49;;;;;;;4.03;2.25;;;28.20;99.90;;;;;;4993660;28;20390;-49
2023/05/25 12:26:17;;;;;;;3.17;2.00;;;28.00;99.90;;;;;;4993424;28;20105;-50
2023/05/25 12:28:58;;;;;;;3.28;2.22;;;28.40;99.90;;;;;;4991940;28;20537;-50
2023/05/25 12:31:25;;;;;;;2.95;2.03;;;28.40;99.90;;;;;;4993936;28;20038;-50
2023/05/25 12:34:10;;;;;;;4.25;2.60;;;28.50;99.90;;;;;;4990584;28;20102;-50
2023/05/25 12:36:39;;;;;;;2.75;2.33;;;28.80;99.90;;;;;;4993079;28;20046;-50
2023/05/25 12:39:05;;;;;;;2.78;2.03;;;28.60;99.90;;;;;;4991690;28;20125;-51
2023/05/25 12:41:41;;;;;;;2.55;1.63;;;28.20;99.90;;;;;;4999421;28;20116;-50
2023/05/25 12:44:21;;;;;;;2.70;2.00;;;27.60;99.90;;;;;;5034094;28;20032;-50
2023/05/25 12:46:51;;;;;;;3.33;2.13;;;27.50;99.90;;;;;;5033476;28;20377;-50
2023/05/25 12:49:33;;;;;;;2.58;2.15;;;26.80;99.90;;;;;;5034356;28;20040;-50
2023/05/25 12:52:01;;;;;;;3.35;2.10;;;26.50;99.90;;;;;;5031279;28;20025;-50
2023/05/25 12:54:35;;;;;;;2.33;1.80;;;26.10;99.90;;;;;;5012129;28;20425;-49
2023/05/25 12:57:05;;;;;;;3.33;2.40;;;25.80;99.90;;;;;;5011544;28;20136;-50
2023/05/25 12:59:32;;;;;;;4.07;2.33;;;26.00;99.90;;;;;;4995851;28;20042;-50
2023/05/25 13:01:59;;;;;;;2.75;2.47;;;25.90;99.90;;;;;;5012372;28;20049;-50
2023/05/25 13:04:25;;;;;;;3.75;2.80;;;26.10;99.90;;;;;;5012211;28;20176;-49
2023/05/25 13:06:51;;;;;;;4.25;2.30;;;26.80;99.90;;;;;;5013214;28;20202;-50
2023/05/25 13:09:17;;;;;;;2.28;2.00;;;27.30;99.90;;;;;;5011924;28;20053;-50